»·PEaware :: N480H KTLR-KLGB

N480H :: KTLR-KLGB

FLIGHT INFORMATION

Flight Status: Arrived
Operator: Privately registered:
United States
More flights under this callsign
Pilot: John N. (54)
Aircraft: BEECH AIRCRAFT BONANZA
(BE35)
More flights by this aircraft type
Origin: KTLR Mefford
United States
Destination: KLGB Long Beach
United States
More flights between these airports :: More routes between these airports
Route: +TTE V459 LHS V459 SLI
File this flight plan on PilotEdge
Remarks:
Altitude:
(Current/Filed)
9,000ft
Speed:
(Current/Filed)
170kts
Departed: 29-Jan-16 03:38 PM
Arrived: 29-Jan-16 04:34 PM
Distance/Time
Traveled:
152nm/0:56
Distance/Time
To Go:
Arrived

Flight Plot

Page will automatically refresh every two minutes.


Map Options




Map Legend


Flown Route
Filed Route
Departure Airport
Arrival Airport
Navaid (VOR, NDB)
Fix

Horizontal Profiles

Position Reports

Time Latitude Longitude Heading Altitude Ground
Speed
29-Jan-16 15:28 36.156231 -119.327452 142 274ft 0kts
29-Jan-16 15:29 36.155362 -119.326738 147 275ft 11kts
29-Jan-16 15:30 36.153141 -119.324991 144 275ft 11kts
29-Jan-16 15:31 36.151467 -119.323686 146 275ft 0kts
29-Jan-16 15:32 36.151426 -119.323264 54 275ft 0kts
29-Jan-16 15:33 36.160419 -119.330280 324 417ft 85kts
29-Jan-16 15:34 36.171216 -119.353759 211 1035ft 114kts
29-Jan-16 15:35 36.159407 -119.329451 122 2097ft 110kts
29-Jan-16 15:36 36.136592 -119.304880 124 3155ft 108kts
29-Jan-16 15:37 36.120905 -119.269658 128 3931ft 124kts
29-Jan-16 15:38 36.098824 -119.236979 137 4665ft 132kts
29-Jan-16 15:39 36.072640 -119.202437 139 5262ft 141kts
29-Jan-16 15:40 36.043662 -119.169675 160 5849ft 139kts
29-Jan-16 15:41 36.011655 -119.141128 146 6431ft 144kts
29-Jan-16 15:42 35.982237 -119.106873 144 7013ft 145kts
29-Jan-16 15:43 35.953687 -119.071669 144 7591ft 145kts
29-Jan-16 15:44 35.925274 -119.036251 144 8170ft 145kts
29-Jan-16 15:45 35.893634 -119.014021 174 8745ft 130kts
29-Jan-16 15:46 35.864191 -119.003260 175 9067ft 143kts
29-Jan-16 15:47 35.829919 -118.991074 170 9057ft 174kts
29-Jan-16 15:48 35.780724 -118.972967 167 9041ft 192kts
29-Jan-16 15:49 35.728587 -118.953794 166 9025ft 197kts
29-Jan-16 15:50 35.690412 -118.939818 165 9014ft 198kts
29-Jan-16 15:51 35.643824 -118.922750 164 9008ft 198kts
29-Jan-16 15:52 35.591014 -118.903497 165 9008ft 198kts
29-Jan-16 15:53 35.538374 -118.884376 165 9009ft 198kts
29-Jan-16 15:54 35.485484 -118.865194 165 9009ft 198kts
29-Jan-16 15:55 35.432841 -118.846127 165 9009ft 198kts
29-Jan-16 15:56 35.380412 -118.827164 165 9009ft 198kts
29-Jan-16 15:57 35.327622 -118.808096 165 9010ft 198kts
29-Jan-16 15:58 35.274694 -118.788995 165 9010ft 198kts
29-Jan-16 15:59 35.221897 -118.769969 165 9012ft 198kts
29-Jan-16 16:00 35.168971 -118.750899 165 9016ft 198kts
29-Jan-16 16:01 35.116071 -118.731877 166 9022ft 198kts
29-Jan-16 16:02 35.063149 -118.712898 167 9027ft 198kts
29-Jan-16 16:03 35.010315 -118.694001 167 9029ft 198kts
29-Jan-16 16:04 34.957456 -118.675112 167 9030ft 198kts
29-Jan-16 16:05 34.904530 -118.656203 167 9030ft 198kts
29-Jan-16 16:06 34.853975 -118.638126 167 9119ft 195kts
29-Jan-16 16:07 34.801526 -118.619456 167 9095ft 198kts
29-Jan-16 16:08 34.748604 -118.600608 167 9065ft 199kts
29-Jan-16 16:09 34.695710 -118.581787 168 9037ft 198kts
29-Jan-16 16:10 34.645281 -118.555248 158 9029ft 198kts
29-Jan-16 16:11 34.596092 -118.526360 159 9029ft 195kts
29-Jan-16 16:12 34.547670 -118.498015 159 9027ft 193kts
29-Jan-16 16:13 34.499350 -118.469765 159 9019ft 192kts
29-Jan-16 16:14 34.452454 -118.442231 159 9014ft 179kts
29-Jan-16 16:14 34.414157 -118.420074 159 9013ft 186kts
29-Jan-16 16:16 34.359078 -118.388779 150 9009ft 192kts
29-Jan-16 16:16 34.318659 -118.364547 152 9006ft 197kts
29-Jan-16 16:17 34.273940 -118.338207 153 8999ft 199kts
29-Jan-16 16:18 34.224277 -118.309164 155 8992ft 199kts
29-Jan-16 16:19 34.174473 -118.280326 155 8995ft 199kts
29-Jan-16 16:20 34.124917 -118.251634 156 8998ft 199kts
29-Jan-16 16:21 34.075695 -118.223292 160 9000ft 198kts
29-Jan-16 16:22 34.018991 -118.222120 184 8241ft 215kts
29-Jan-16 16:23 33.959731 -118.223408 184 7367ft 218kts
29-Jan-16 16:24 33.915043 -118.221593 175 6257ft 141kts
29-Jan-16 16:25 33.878581 -118.213029 168 4395ft 116kts
29-Jan-16 16:26 33.855125 -118.193730 110 2692ft 74kts
29-Jan-16 16:28 33.836368 -118.170028 151 754ft 112kts
29-Jan-16 16:29 33.819491 -118.153462 144 64ft 32kts
29-Jan-16 16:30 33.818541 -118.153375 254 64ft 0kts
29-Jan-16 16:31 33.818541 -118.153375 254 64ft 0kts
29-Jan-16 16:32 33.818549 -118.155035 265 63ft 14kts
29-Jan-16 16:33 33.815424 -118.157399 177 64ft 14kts
29-Jan-16 16:34 33.813587 -118.157312 182 64ft 8kts
29-Jan-16 16:35 33.813076 -118.156420 81 64ft 0kts
29-Jan-16 16:36 33.812306 -118.154459 28 63ft 4kts
29-Jan-16 16:37 33.812382 -118.154445 356 63ft 0kts
29-Jan-16 16:38 33.812382 -118.154445 356 64ft 0kts
29-Jan-16 16:39 33.812382 -118.154445 356 64ft 0kts
29-Jan-16 16:40 33.812382 -118.154445 356 64ft 0kts
29-Jan-16 16:41 33.812382 -118.154445 356 64ft 0kts
29-Jan-16 16:42 33.812382 -118.154445 356 64ft 0kts
29-Jan-16 16:43 33.812382 -118.154445 356 64ft 0kts

Navigation Log

Ident Type
Flight plan parsing failed, navigation log unavailable